createdAt,value
2023-03-10T00:00:53.351Z,11.87
2023-03-10T00:03:19.967Z,11.91
2023-03-10T00:05:47.053Z,11.88
2023-03-10T00:08:13.734Z,11.81
2023-03-10T00:10:40.726Z,11.77
2023-03-10T00:13:07.355Z,11.77
2023-03-10T00:15:33.962Z,11.85
2023-03-10T00:18:00.670Z,11.81
2023-03-10T00:20:27.472Z,11.77
2023-03-10T00:22:54.279Z,11.65
2023-03-10T00:25:20.961Z,11.80
2023-03-10T00:27:47.737Z,11.80
2023-03-10T00:30:15.097Z,11.77
2023-03-10T00:32:41.842Z,11.74
2023-03-10T00:35:08.647Z,11.66
2023-03-10T00:37:38.651Z,11.70
2023-03-10T00:40:10.261Z,11.72
2023-03-10T00:42:36.962Z,11.70
2023-03-10T00:45:03.962Z,11.67
2023-03-10T00:47:30.656Z,11.64
2023-03-10T00:49:57.319Z,11.68
2023-03-10T00:52:24.215Z,11.66
2023-03-10T00:54:51.687Z,11.75
2023-03-10T00:57:18.299Z,11.76
2023-03-10T00:59:50.445Z,11.63
2023-03-10T01:02:20.611Z,11.59
2023-03-10T01:04:48.480Z,11.59
2023-03-10T01:07:15.275Z,11.65
2023-03-10T01:09:42.565Z,11.69
2023-03-10T01:12:09.338Z,11.59
2023-03-10T01:14:35.940Z,11.61
2023-03-10T01:17:04.142Z,11.66
2023-03-10T01:19:31.191Z,11.60
2023-03-10T01:21:57.972Z,11.61
2023-03-10T01:24:24.610Z,11.57
2023-03-10T01:26:51.283Z,11.48
2023-03-10T01:29:18.050Z,11.39
2023-03-10T01:31:44.883Z,11.39
2023-03-10T01:34:11.556Z,11.43
2023-03-10T01:36:41.604Z,11.41
2023-03-10T01:39:08.288Z,11.33
2023-03-10T01:41:39.435Z,11.19
2023-03-10T01:44:15.792Z,11.26
2023-03-10T01:46:47.739Z,11.18
2023-03-10T01:49:27.774Z,11.26
2023-03-10T01:52:00.578Z,11.06
2023-03-10T01:54:34.232Z,10.97
2023-03-10T01:57:01.036Z,10.98
2023-03-10T01:59:28.617Z,11.00
2023-03-10T02:01:57.781Z,11.06
2023-03-10T02:04:44.747Z,10.96
2023-03-10T02:07:13.045Z,10.90
2023-03-10T02:09:44.165Z,10.84
2023-03-10T02:12:12.705Z,10.85
2023-03-10T02:14:39.932Z,10.87
2023-03-10T02:17:11.157Z,10.91
2023-03-10T02:20:12.120Z,10.84
2023-03-10T02:22:40.043Z,10.83
2023-03-10T02:25:30.286Z,10.79
2023-03-10T02:27:58.007Z,10.68
2023-03-10T02:30:29.225Z,10.66
2023-03-10T02:33:01.440Z,10.68
2023-03-10T02:35:28.642Z,10.75
2023-03-10T02:38:00.706Z,10.76
2023-03-10T02:40:57.258Z,10.75
2023-03-10T02:43:34.675Z,10.66
2023-03-10T02:46:18.271Z,10.69
2023-03-10T02:48:45.947Z,10.68
2023-03-10T02:51:39.479Z,10.75
2023-03-10T02:54:12.046Z,10.64
2023-03-10T02:56:40.728Z,10.68
2023-03-10T02:59:09.078Z,10.65
2023-03-10T03:01:38.162Z,10.65
2023-03-10T03:04:06.162Z,10.74
2023-03-10T03:06:32.946Z,10.69
2023-03-10T03:09:00.510Z,10.67
2023-03-10T03:11:29.461Z,10.68
2023-03-10T03:13:56.170Z,10.67
2023-03-10T03:16:23.947Z,10.68
2023-03-10T03:18:54.775Z,10.72
2023-03-10T03:21:23.157Z,10.65
2023-03-10T03:23:50.097Z,10.72
2023-03-10T03:26:23.675Z,10.73
2023-03-10T03:28:53.521Z,10.71
2023-03-10T03:31:25.683Z,10.74
2023-03-10T03:34:01.649Z,10.74
2023-03-10T03:36:28.420Z,10.73
2023-03-10T03:38:56.474Z,10.56
2023-03-10T03:41:24.696Z,10.68
2023-03-10T03:43:51.324Z,10.67
2023-03-10T03:46:18.371Z,10.62
2023-03-10T03:48:45.143Z,10.67
2023-03-10T03:51:12.455Z,10.74
2023-03-10T03:53:41.453Z,10.59
2023-03-10T03:56:08.405Z,10.45
2023-03-10T03:58:37.371Z,10.54
2023-03-10T04:01:04.169Z,10.48
2023-03-10T04:03:36.901Z,10.55
2023-03-10T04:06:05.942Z,10.59
2023-03-10T04:08:32.752Z,10.52
2023-03-10T04:10:59.536Z,10.45
2023-03-10T04:13:28.976Z,10.24
2023-03-10T04:15:58.374Z,10.24
2023-03-10T04:18:29.052Z,10.26
2023-03-10T04:20:56.101Z,10.15
2023-03-10T04:23:22.922Z,10.19
2023-03-10T04:25:49.735Z,10.17
2023-03-10T04:28:17.529Z,10.20
2023-03-10T04:30:46.141Z,10.18
2023-03-10T04:33:13.559Z,10.21
2023-03-10T04:35:44.333Z,10.19
2023-03-10T04:38:16.135Z,10.12
2023-03-10T04:40:42.892Z,10.11
2023-03-10T04:43:09.998Z,9.99
2023-03-10T04:45:37.520Z,10.10
2023-03-10T04:48:04.521Z,10.11
2023-03-10T04:50:31.273Z,10.15
2023-03-10T04:52:58.031Z,10.19
2023-03-10T04:55:28.776Z,10.21
2023-03-10T04:57:56.016Z,10.19
2023-03-10T05:00:23.326Z,10.34
2023-03-10T05:02:52.836Z,10.34
2023-03-10T05:05:19.896Z,10.27
2023-03-10T05:07:47.025Z,10.27
2023-03-10T05:10:13.693Z,10.20
2023-03-10T05:12:42.265Z,10.16
2023-03-10T05:15:10.487Z,10.36
2023-03-10T05:17:37.498Z,10.39
2023-03-10T05:20:07.900Z,10.25
2023-03-10T05:22:36.740Z,10.22
2023-03-10T05:25:05.522Z,10.27
2023-03-10T05:27:38.118Z,10.40
2023-03-10T05:30:07.104Z,10.32
2023-03-10T05:32:35.402Z,10.38
2023-03-10T05:35:03.928Z,10.46
2023-03-10T05:37:38.041Z,10.32
2023-03-10T05:40:14.068Z,10.29
2023-03-10T05:42:41.117Z,10.61
2023-03-10T05:45:08.470Z,10.61
2023-03-10T05:47:37.320Z,10.46
2023-03-10T05:50:05.712Z,10.56
2023-03-10T05:52:36.735Z,10.49
2023-03-10T05:55:04.122Z,10.59
2023-03-10T05:57:30.738Z,10.44
2023-03-10T05:59:57.517Z,10.39
2023-03-10T06:02:24.307Z,10.38
2023-03-10T06:04:50.918Z,10.45
2023-03-10T06:07:17.849Z,10.43
2023-03-10T06:09:44.790Z,10.46
2023-03-10T06:12:11.446Z,10.44
2023-03-10T06:14:38.517Z,10.46
2023-03-10T06:17:05.192Z,10.54
2023-03-10T06:19:31.827Z,10.51
2023-03-10T06:21:58.449Z,10.47
2023-03-10T06:24:27.428Z,10.47
2023-03-10T06:26:54.491Z,10.48
2023-03-10T06:29:21.476Z,10.43
2023-03-10T06:31:48.187Z,10.48
2023-03-10T06:34:15.161Z,10.42
2023-03-10T06:36:41.863Z,10.51
2023-03-10T06:39:08.946Z,10.64
2023-03-10T06:41:37.113Z,10.64
2023-03-10T06:44:04.316Z,10.66
2023-03-10T06:46:31.003Z,10.56
2023-03-10T06:48:57.628Z,10.69
2023-03-10T06:51:24.342Z,10.66
2023-03-10T06:53:51.105Z,10.65
2023-03-10T06:56:22.063Z,10.67
2023-03-10T06:58:49.090Z,10.70
2023-03-10T07:01:30.243Z,10.74
2023-03-10T07:03:57.449Z,10.85
2023-03-10T07:06:24.660Z,11.00
2023-03-10T07:08:51.799Z,10.98
2023-03-10T07:11:18.953Z,11.04
2023-03-10T07:13:45.726Z,10.92
2023-03-10T07:16:12.400Z,10.92
2023-03-10T07:18:39.074Z,10.93
2023-03-10T07:21:10.606Z,10.80
2023-03-10T07:23:37.764Z,10.78
2023-03-10T07:26:07.892Z,10.85
2023-03-10T07:28:37.999Z,10.89
2023-03-10T07:31:07.199Z,11.12
2023-03-10T07:33:34.376Z,11.14
2023-03-10T07:36:10.309Z,11.02
2023-03-10T07:38:37.189Z,10.93
2023-03-10T07:41:09.132Z,10.97
2023-03-10T07:43:36.557Z,10.90
2023-03-10T07:46:07.938Z,10.86
2023-03-10T07:48:34.925Z,10.83
2023-03-10T07:51:01.959Z,10.91
2023-03-10T07:53:29.702Z,10.86
2023-03-10T07:55:56.480Z,10.80
2023-03-10T07:58:23.330Z,10.77
2023-03-10T08:00:57.465Z,10.77
2023-03-10T08:03:26.120Z,10.60
2023-03-10T08:05:52.860Z,10.72
2023-03-10T08:08:20.053Z,10.57
2023-03-10T08:10:47.826Z,10.28
2023-03-10T08:13:14.706Z,10.33
2023-03-10T08:15:41.675Z,10.17
2023-03-10T08:18:08.679Z,10.05
2023-03-10T08:20:36.742Z,10.06
2023-03-10T08:23:04.137Z,10.11
2023-03-10T08:25:31.244Z,10.22
2023-03-10T08:27:58.160Z,10.27
2023-03-10T08:30:26.101Z,10.12
2023-03-10T08:32:52.853Z,10.19
2023-03-10T08:35:19.805Z,10.26
2023-03-10T08:37:46.503Z,10.36
2023-03-10T08:40:14.994Z,10.28
2023-03-10T08:42:42.007Z,10.31
2023-03-10T08:45:09.126Z,10.30
2023-03-10T08:47:36.158Z,10.21
2023-03-10T08:50:04.872Z,10.30
2023-03-10T08:52:31.778Z,10.36
2023-03-10T08:54:59.890Z,10.40
2023-03-10T08:57:26.746Z,10.24
2023-03-10T08:59:53.854Z,10.32
2023-03-10T09:02:21.940Z,10.50
2023-03-10T09:04:50.356Z,10.49
2023-03-10T09:07:17.581Z,10.34
2023-03-10T09:09:44.685Z,11.04
2023-03-10T09:12:12.268Z,11.92
2023-03-10T09:14:38.965Z,13.98
2023-03-10T09:17:06.060Z,12.23
2023-03-10T09:19:32.799Z,12.61
2023-03-10T09:22:00.911Z,13.10
2023-03-10T09:24:28.283Z,12.31
2023-03-10T09:26:56.097Z,12.06
2023-03-10T09:29:36.498Z,11.99
2023-03-10T09:32:09.026Z,11.92
2023-03-10T09:34:35.800Z,11.69
2023-03-10T09:37:02.402Z,11.60
2023-03-10T09:39:29.155Z,11.36
2023-03-10T09:42:11.988Z,11.47
2023-03-10T09:44:52.579Z,11.19
2023-03-10T09:47:46.961Z,11.26
2023-03-10T09:50:32.262Z,11.30
2023-03-10T09:53:07.262Z,11.38
2023-03-10T09:55:47.909Z,11.33
2023-03-10T09:58:32.568Z,11.37
2023-03-10T10:01:00.911Z,11.42
2023-03-10T10:03:50.153Z,11.35
2023-03-10T10:06:28.290Z,11.37
2023-03-10T10:09:04.795Z,11.40
2023-03-10T10:11:34.327Z,11.19
2023-03-10T10:14:30.055Z,11.17
2023-03-10T10:17:18.345Z,11.23
2023-03-10T10:19:47.850Z,11.20
2023-03-10T10:22:28.482Z,11.07
2023-03-10T10:25:20.294Z,11.11
2023-03-10T10:27:51.519Z,11.18
2023-03-10T10:30:34.190Z,11.21
2023-03-10T10:33:02.024Z,11.02
2023-03-10T10:35:31.790Z,11.05
2023-03-10T10:38:17.272Z,11.20
2023-03-10T10:40:51.512Z,11.10
2023-03-10T10:43:19.687Z,11.19
2023-03-10T10:45:54.373Z,11.17
2023-03-10T10:48:35.136Z,11.15
2023-03-10T10:51:02.415Z,11.19
2023-03-10T10:53:34.438Z,11.16
2023-03-10T10:56:00.981Z,11.27
2023-03-10T10:58:35.008Z,11.16
2023-03-10T11:01:05.443Z,11.06
2023-03-10T11:03:36.752Z,11.22
2023-03-10T11:06:15.515Z,11.18
2023-03-10T11:08:45.367Z,11.18
2023-03-10T11:11:38.582Z,11.11
2023-03-10T11:14:32.410Z,11.13
2023-03-10T11:17:18.833Z,11.08
2023-03-10T11:20:02.243Z,11.07
2023-03-10T11:22:39.308Z,11.08
2023-03-10T11:25:19.103Z,10.95
2023-03-10T11:28:02.577Z,11.03
2023-03-10T11:30:34.382Z,11.08
2023-03-10T11:33:34.858Z,10.92
2023-03-10T11:36:17.295Z,10.88
2023-03-10T11:38:48.543Z,10.96
2023-03-10T11:41:39.621Z,10.94
2023-03-10T11:44:17.758Z,10.96
2023-03-10T11:47:03.917Z,10.89
2023-03-10T11:49:40.110Z,11.03
2023-03-10T11:52:17.140Z,11.02
2023-03-10T11:54:53.240Z,10.87
2023-03-10T11:57:25.482Z,10.72
2023-03-10T11:59:56.430Z,10.59
2023-03-10T12:02:41.931Z,10.39
2023-03-10T12:05:20.960Z,10.47
2023-03-10T12:07:52.997Z,10.69
2023-03-10T12:10:21.909Z,10.87
2023-03-10T12:12:50.463Z,10.85
2023-03-10T12:15:23.301Z,10.74
2023-03-10T12:17:52.745Z,10.81
2023-03-10T12:20:19.397Z,10.74
2023-03-10T12:22:54.659Z,10.73
2023-03-10T12:25:30.473Z,10.61
2023-03-10T12:28:16.152Z,10.65
2023-03-10T12:30:50.859Z,10.62
2023-03-10T12:33:39.521Z,10.59
2023-03-10T12:36:13.161Z,10.44
2023-03-10T12:38:42.792Z,10.38
2023-03-10T12:41:10.352Z,10.35
2023-03-10T12:43:48.791Z,10.39
2023-03-10T12:46:21.368Z,10.33
2023-03-10T12:48:53.686Z,10.36
2023-03-10T12:51:25.462Z,10.36
2023-03-10T12:54:02.487Z,10.46
2023-03-10T12:56:36.802Z,10.49
2023-03-10T12:59:17.322Z,10.52
2023-03-10T13:01:55.468Z,10.55
2023-03-10T13:04:23.426Z,10.36
2023-03-10T13:06:50.264Z,10.30
2023-03-10T13:09:42.304Z,10.25
2023-03-10T13:12:45.859Z,10.35
2023-03-10T13:15:23.859Z,10.31
2023-03-10T13:17:51.540Z,10.29
2023-03-10T13:20:19.377Z,10.40
2023-03-10T13:22:58.051Z,10.25
2023-03-10T13:25:25.650Z,10.40
2023-03-10T13:27:52.847Z,10.49
2023-03-10T13:30:22.309Z,10.49
2023-03-10T13:33:01.105Z,10.36
2023-03-10T13:35:35.991Z,10.24
2023-03-10T13:38:24.554Z,10.30
2023-03-10T13:40:57.414Z,10.34
2023-03-10T13:43:34.753Z,10.31
2023-03-10T13:46:04.035Z,10.39
2023-03-10T13:48:32.297Z,10.53
2023-03-10T13:51:05.143Z,10.36
2023-03-10T13:53:31.992Z,10.47
2023-03-10T13:55:58.698Z,10.39
2023-03-10T13:58:26.202Z,10.40
2023-03-10T14:00:56.255Z,10.43
2023-03-10T14:03:23.180Z,10.36
2023-03-10T14:05:49.981Z,10.27
2023-03-10T14:08:34.784Z,10.36
2023-03-10T14:11:33.788Z,10.56
2023-03-10T14:14:01.865Z,10.71
2023-03-10T14:16:48.641Z,10.66
2023-03-10T14:19:44.909Z,10.72
2023-03-10T14:22:31.411Z,10.69
2023-03-10T14:25:00.628Z,10.68
2023-03-10T14:27:28.024Z,10.68
2023-03-10T14:29:57.689Z,10.78
2023-03-10T14:32:25.176Z,10.63
2023-03-10T14:34:52.081Z,10.68
2023-03-10T14:37:18.719Z,10.68
2023-03-10T14:39:45.511Z,10.39
2023-03-10T14:42:20.640Z,10.56
2023-03-10T14:44:48.790Z,10.47
2023-03-10T14:47:16.478Z,10.48
2023-03-10T14:49:43.532Z,10.37
2023-03-10T14:52:17.810Z,10.42
2023-03-10T14:54:44.698Z,10.42
2023-03-10T14:57:13.855Z,10.54
2023-03-10T14:59:40.770Z,10.52
2023-03-10T15:02:22.180Z,10.38
2023-03-10T15:04:49.268Z,10.45
2023-03-10T15:07:17.549Z,10.36
2023-03-10T15:09:45.129Z,10.29
2023-03-10T15:12:15.270Z,10.28
2023-03-10T15:14:51.825Z,10.18
2023-03-10T15:17:19.313Z,10.08
2023-03-10T15:19:46.224Z,10.00
2023-03-10T15:22:13.510Z,10.15
2023-03-10T15:24:40.375Z,10.05
2023-03-10T15:27:07.432Z,10.03
2023-03-10T15:29:34.135Z,10.04
2023-03-10T15:32:01.692Z,9.93
2023-03-10T15:34:28.489Z,9.79
2023-03-10T15:36:56.444Z,9.72
2023-03-10T15:39:31.398Z,9.66
2023-03-10T15:41:58.517Z,9.56
2023-03-10T15:44:25.298Z,9.51
2023-03-10T15:46:54.728Z,9.47
2023-03-10T15:49:21.546Z,9.55
2023-03-10T15:51:48.299Z,9.52
2023-03-10T15:54:15.031Z,9.58
2023-03-10T15:56:41.704Z,9.59
2023-03-10T15:59:08.589Z,9.67
2023-03-10T16:01:35.354Z,9.88
2023-03-10T16:04:05.671Z,9.83
2023-03-10T16:06:34.126Z,9.78
2023-03-10T16:09:01.326Z,9.78
2023-03-10T16:11:28.441Z,9.45
2023-03-10T16:13:55.180Z,9.42
2023-03-10T16:16:26.230Z,9.52
2023-03-10T16:18:53.267Z,9.49
2023-03-10T16:21:20.405Z,9.78
2023-03-10T16:23:47.130Z,9.65
2023-03-10T16:26:22.047Z,9.72
2023-03-10T16:28:53.962Z,9.66
2023-03-10T16:31:26.891Z,9.55
2023-03-10T16:33:54.480Z,9.41
2023-03-10T16:36:23.766Z,9.41
2023-03-10T16:38:53.341Z,9.35
2023-03-10T16:41:20.916Z,9.27
2023-03-10T16:43:47.754Z,9.32
2023-03-10T16:46:19.852Z,9.33
2023-03-10T16:48:47.983Z,9.16
2023-03-10T16:51:21.005Z,9.23
2023-03-10T16:53:48.717Z,9.16
2023-03-10T16:56:15.912Z,9.09
2023-03-10T16:58:42.802Z,9.18
2023-03-10T17:01:09.784Z,9.36
2023-03-10T17:03:39.892Z,9.13
2023-03-10T17:06:16.201Z,8.98
2023-03-10T17:08:43.342Z,8.97
2023-03-10T17:11:21.327Z,8.92
2023-03-10T17:13:49.661Z,8.90
2023-03-10T17:16:18.002Z,8.88
2023-03-10T17:18:45.216Z,8.70
2023-03-10T17:21:17.286Z,8.70
2023-03-10T17:23:44.724Z,8.62
2023-03-10T17:26:12.216Z,8.49
2023-03-10T17:28:40.146Z,8.36
2023-03-10T17:31:12.688Z,8.38
2023-03-10T17:33:41.801Z,8.38
2023-03-10T17:36:12.075Z,8.44
2023-03-10T17:38:39.828Z,8.44
2023-03-10T17:41:11.795Z,8.34
2023-03-10T17:43:39.081Z,8.16
2023-03-10T17:46:09.003Z,8.10
2023-03-10T17:48:35.886Z,8.17
2023-03-10T17:51:03.811Z,8.17
2023-03-10T17:53:31.039Z,8.06
2023-03-10T17:55:58.367Z,7.99
2023-03-10T17:58:26.882Z,7.99
2023-03-10T18:00:53.602Z,8.04
2023-03-10T18:03:20.619Z,7.87
2023-03-10T18:05:48.031Z,7.98
2023-03-10T18:08:14.792Z,7.87
2023-03-10T18:10:41.759Z,7.89
2023-03-10T18:13:11.773Z,7.90
2023-03-10T18:15:38.903Z,7.80
2023-03-10T18:18:05.756Z,7.83
2023-03-10T18:20:32.725Z,7.82
2023-03-10T18:23:00.483Z,7.88
2023-03-10T18:25:27.159Z,7.78
2023-03-10T18:27:53.783Z,7.92
2023-03-10T18:30:20.512Z,8.03
2023-03-10T18:32:47.263Z,7.86
2023-03-10T18:35:14.031Z,7.95
2023-03-10T18:37:40.776Z,8.00
2023-03-10T18:40:09.146Z,7.91
2023-03-10T18:42:36.017Z,7.95
2023-03-10T18:45:03.040Z,7.89
2023-03-10T18:47:30.337Z,7.60
2023-03-10T18:49:58.481Z,7.55
2023-03-10T18:52:25.620Z,7.48
2023-03-10T18:54:52.330Z,7.17
2023-03-10T18:57:19.059Z,7.15
2023-03-10T18:59:45.910Z,7.22
2023-03-10T19:02:14.663Z,7.24
2023-03-10T19:04:41.615Z,7.29
2023-03-10T19:07:08.489Z,6.93
2023-03-10T19:09:35.136Z,6.51
2023-03-10T19:12:01.795Z,6.95
2023-03-10T19:14:28.462Z,6.62
2023-03-10T19:16:55.150Z,6.67
2023-03-10T19:19:21.821Z,6.73
2023-03-10T19:21:48.581Z,6.41
2023-03-10T19:24:15.186Z,6.33
2023-03-10T19:26:43.390Z,6.29
2023-03-10T19:29:10.030Z,6.00
2023-03-10T19:31:36.727Z,6.04
2023-03-10T19:34:03.517Z,6.08
2023-03-10T19:36:30.270Z,6.11
2023-03-10T19:38:57.053Z,6.45
2023-03-10T19:41:23.749Z,6.03
2023-03-10T19:43:54.598Z,5.93
2023-03-10T19:46:21.392Z,5.81
2023-03-10T19:48:48.308Z,5.72
2023-03-10T19:51:23.864Z,5.92
2023-03-10T19:53:52.161Z,5.94
2023-03-10T19:56:19.801Z,5.90
2023-03-10T19:58:48.545Z,6.09
2023-03-10T20:01:23.114Z,6.11
2023-03-10T20:03:51.675Z,5.73
2023-03-10T20:06:18.549Z,6.12
2023-03-10T20:08:45.203Z,5.91
2023-03-10T20:11:14.729Z,5.81
2023-03-10T20:13:42.869Z,5.83
2023-03-10T20:16:12.910Z,5.68
2023-03-10T20:18:40.113Z,5.66
2023-03-10T20:21:07.905Z,5.69
2023-03-10T20:23:34.672Z,5.58
2023-03-10T20:26:03.749Z,5.80
2023-03-10T20:28:33.728Z,5.57
2023-03-10T20:31:00.476Z,5.48
2023-03-10T20:33:27.526Z,5.78
2023-03-10T20:35:54.718Z,5.66
2023-03-10T20:38:21.488Z,5.71
2023-03-10T20:40:48.717Z,5.58
2023-03-10T20:43:15.376Z,5.58
2023-03-10T20:45:42.542Z,5.53
2023-03-10T20:48:09.513Z,5.62
2023-03-10T20:50:36.504Z,5.59
2023-03-10T20:53:03.391Z,5.48
2023-03-10T20:55:31.383Z,5.57
2023-03-10T20:57:59.973Z,5.71
2023-03-10T21:00:28.956Z,5.83
2023-03-10T21:02:57.330Z,5.74
2023-03-10T21:05:26.216Z,5.57
2023-03-10T21:07:53.303Z,5.76
2023-03-10T21:10:20.654Z,6.05
2023-03-10T21:12:47.400Z,5.64
2023-03-10T21:15:16.012Z,5.81
2023-03-10T21:17:43.414Z,6.05
2023-03-10T21:20:11.581Z,6.09
2023-03-10T21:22:39.879Z,5.77
2023-03-10T21:25:10.111Z,5.73
2023-03-10T21:27:36.703Z,5.60
2023-03-10T21:30:07.825Z,5.61
2023-03-10T21:32:34.496Z,5.55
2023-03-10T21:35:01.276Z,5.64
2023-03-10T21:37:28.258Z,5.43
2023-03-10T21:39:54.914Z,5.39
2023-03-10T21:42:21.563Z,5.54
2023-03-10T21:44:48.509Z,5.41
2023-03-10T21:47:15.539Z,5.46
2023-03-10T21:49:42.104Z,5.35
2023-03-10T21:52:09.918Z,5.39
2023-03-10T21:54:36.606Z,5.23
2023-03-10T21:57:03.457Z,5.19
2023-03-10T21:59:30.124Z,5.25
2023-03-10T22:01:56.957Z,5.17
2023-03-10T22:04:23.912Z,5.11
2023-03-10T22:06:50.600Z,5.09
2023-03-10T22:09:20.096Z,5.23
2023-03-10T22:11:47.490Z,5.24
2023-03-10T22:14:15.787Z,5.19
2023-03-10T22:16:42.506Z,5.21
2023-03-10T22:19:09.160Z,5.28
2023-03-10T22:21:35.765Z,5.27
2023-03-10T22:24:03.133Z,5.18
2023-03-10T22:26:29.753Z,5.21
2023-03-10T22:28:56.591Z,5.10
2023-03-10T22:31:23.764Z,5.22
2023-03-10T22:33:50.391Z,5.07
2023-03-10T22:36:18.453Z,5.02
2023-03-10T22:38:45.096Z,5.04
2023-03-10T22:41:13.789Z,4.99
2023-03-10T22:43:41.181Z,5.22
2023-03-10T22:46:10.905Z,5.21
2023-03-10T22:48:37.836Z,5.23
2023-03-10T22:51:09.780Z,5.14
2023-03-10T22:53:38.148Z,4.75
2023-03-10T22:56:05.425Z,4.63
2023-03-10T22:58:32.369Z,4.55
2023-03-10T23:00:59.686Z,4.34
2023-03-10T23:03:26.687Z,3.69
2023-03-10T23:05:53.516Z,3.70
2023-03-10T23:08:20.388Z,3.53
2023-03-10T23:10:47.073Z,3.47
2023-03-10T23:13:15.564Z,3.80
2023-03-10T23:15:43.176Z,3.82
2023-03-10T23:18:10.285Z,3.71
2023-03-10T23:20:42.933Z,3.78
2023-03-10T23:23:14.595Z,3.60
2023-03-10T23:25:44.400Z,3.63
2023-03-10T23:28:11.466Z,3.47
2023-03-10T23:30:39.855Z,3.68
2023-03-10T23:33:10.409Z,3.87
2023-03-10T23:35:37.268Z,3.68
2023-03-10T23:38:05.901Z,3.80
2023-03-10T23:40:34.485Z,3.76
2023-03-10T23:43:02.689Z,3.72
2023-03-10T23:45:31.511Z,3.84
2023-03-10T23:48:01.640Z,3.93
2023-03-10T23:50:31.156Z,4.10
2023-03-10T23:52:58.118Z,3.96
2023-03-10T23:55:28.281Z,4.17
2023-03-10T23:57:55.097Z,4.46
